Time;durP1;ratioP1;P1;durP2;ratioP2;P2;SDS_P1;SDS_P2;PMS_P1;PMS_P2;Temp;Humidity;BMP_temperature;BMP_pressure;BME280_temperature;BME280_humidity;BME280_pressure;Samples;Min_cycle;Max_cycle;Signal;HPM_P1;HPM_P2
2022/01/31 00:02:06;;;;;;;13.00;4.97;;;;;;;;;;5128791;27;24493;-53
2022/01/31 00:04:31;;;;;;;12.02;4.60;;;;;;;;;;5124530;27;24943;-53
2022/01/31 00:06:57;;;;;;;13.63;4.38;;;;;;;;;;5127619;27;24442;-53
2022/01/31 00:09:23;;;;;;;19.05;5.50;;;;;;;;;;5127850;27;24470;-53
2022/01/31 00:11:57;;;;;;;10.57;4.25;;;;;;;;;;5122762;27;24419;-54
2022/01/31 00:14:33;;;;;;;10.57;4.30;;;;;;;;;;5123448;27;24473;-53
2022/01/31 00:16:58;;;;;;;11.73;4.80;;;;;;;;;;5124651;27;24397;-54
2022/01/31 00:19:23;;;;;;;13.20;4.43;;;;;;;;;;5127776;27;24505;-54
2022/01/31 00:21:48;;;;;;;12.48;4.43;;;;;;;;;;5126326;27;24477;-54
2022/01/31 00:24:13;;;;;;;12.57;4.90;;;;;;;;;;5128077;27;24569;-54
2022/01/31 00:26:39;;;;;;;12.10;4.70;;;;;;;;;;5126877;27;25002;-53
2022/01/31 00:29:04;;;;;;;11.80;4.30;;;;;;;;;;5128402;27;24480;-53
2022/01/31 00:31:29;;;;;;;11.80;4.70;;;;;;;;;;5127035;27;24424;-53
2022/01/31 00:33:54;;;;;;;15.18;4.70;;;;;;;;;;5127730;27;24478;-55
2022/01/31 00:36:19;;;;;;;14.57;5.10;;;;;;;;;;5127479;27;24408;-52
2022/01/31 00:38:44;;;;;;;9.20;4.20;;;;;;;;;;5126656;27;24985;-52
2022/01/31 00:41:11;;;;;;;14.18;4.90;;;;;;;;;;5127327;27;24573;-54
2022/01/31 00:43:37;;;;;;;8.50;3.30;;;;;;;;;;5117656;27;24449;-53
2022/01/31 00:46:09;;;;;;;9.82;3.58;;;;;;;;;;5119707;27;24417;-54
2022/01/31 00:48:41;;;;;;;10.02;3.75;;;;;;;;;;5125990;27;24421;-53
2022/01/31 00:51:06;;;;;;;12.18;4.30;;;;;;;;;;5123034;27;24452;-53
2022/01/31 00:53:31;;;;;;;14.23;4.75;;;;;;;;;;5126639;27;24959;-54
2022/01/31 00:55:56;;;;;;;15.18;4.43;;;;;;;;;;5127207;27;24524;-54
2022/01/31 00:58:21;;;;;;;13.07;4.25;;;;;;;;;;5123186;27;24429;-54
2022/01/31 01:00:47;;;;;;;13.83;4.27;;;;;;;;;;5125952;27;24914;-53
2022/01/31 01:03:12;;;;;;;9.00;3.67;;;;;;;;;;5114508;27;24827;-54
2022/01/31 01:05:37;;;;;;;14.70;4.70;;;;;;;;;;5125928;27;24574;-54
2022/01/31 01:08:03;;;;;;;12.30;4.97;;;;;;;;;;5127025;27;24469;-54
2022/01/31 01:10:28;;;;;;;12.63;3.80;;;;;;;;;;5124049;27;24965;-54
2022/01/31 01:12:54;;;;;;;11.63;3.87;;;;;;;;;;5127601;27;24425;-54
2022/01/31 01:15:19;;;;;;;13.40;4.57;;;;;;;;;;5126119;27;24446;-54
2022/01/31 01:17:45;;;;;;;10.17;3.77;;;;;;;;;;5126979;27;25242;-54
2022/01/31 01:20:11;;;;;;;11.80;4.50;;;;;;;;;;5124703;27;24413;-54
2022/01/31 01:22:36;;;;;;;10.77;4.05;;;;;;;;;;5125118;27;24490;-54
2022/01/31 01:25:04;;;;;;;12.15;4.35;;;;;;;;;;5127251;27;24993;-54
2022/01/31 01:27:29;;;;;;;13.60;4.30;;;;;;;;;;5127092;27;24416;-54
2022/01/31 01:29:56;;;;;;;11.30;4.47;;;;;;;;;;5126389;28;24821;-54
2022/01/31 01:32:22;;;;;;;10.93;4.30;;;;;;;;;;5119285;27;25120;-54
2022/01/31 01:34:47;;;;;;;11.17;4.03;;;;;;;;;;5127305;28;24427;-54
2022/01/31 01:37:12;;;;;;;9.87;4.00;;;;;;;;;;5125986;28;24398;-54
2022/01/31 01:39:37;;;;;;;12.10;4.80;;;;;;;;;;5127285;28;24531;-54
2022/01/31 01:42:03;;;;;;;14.03;4.70;;;;;;;;;;5126153;28;24673;-54
2022/01/31 01:44:45;;;;;;;15.07;5.00;;;;;;;;;;5126321;28;24485;-55
2022/01/31 01:47:10;;;;;;;14.98;4.90;;;;;;;;;;5127054;28;24416;-54
2022/01/31 01:49:35;;;;;;;14.87;4.63;;;;;;;;;;5126909;28;24409;-54
2022/01/31 01:52:01;;;;;;;11.77;4.40;;;;;;;;;;5124966;28;24409;-54
2022/01/31 01:54:26;;;;;;;9.65;4.18;;;;;;;;;;5126385;28;24481;-53
2022/01/31 01:56:51;;;;;;;9.90;4.00;;;;;;;;;;5123593;28;24779;-54
2022/01/31 01:59:17;;;;;;;16.90;5.75;;;;;;;;;;5126449;28;24512;-57
2022/01/31 02:01:42;;;;;;;12.93;4.23;;;;;;;;;;5126544;28;24800;-54
2022/01/31 02:04:07;;;;;;;14.15;4.38;;;;;;;;;;5126509;28;24485;-54
2022/01/31 02:06:32;;;;;;;13.45;4.53;;;;;;;;;;5124771;28;24424;-54
2022/01/31 02:08:57;;;;;;;11.77;4.37;;;;;;;;;;5126462;28;24401;-54
2022/01/31 02:11:22;;;;;;;10.85;4.07;;;;;;;;;;5125445;28;24451;-54
2022/01/31 02:13:47;;;;;;;10.70;4.18;;;;;;;;;;5127072;28;24976;-69
2022/01/31 02:16:13;;;;;;;12.23;4.57;;;;;;;;;;5125419;28;24746;-54
2022/01/31 02:18:47;;;;;;;11.17;4.20;;;;;;;;;;5126182;28;24479;-54
2022/01/31 02:21:12;;;;;;;12.80;4.47;;;;;;;;;;5125796;28;24471;-54
2022/01/31 02:23:37;;;;;;;10.95;4.40;;;;;;;;;;5122182;28;24417;-54
2022/01/31 02:26:04;;;;;;;12.07;4.00;;;;;;;;;;5126719;28;24907;-54
2022/01/31 02:28:30;;;;;;;10.32;4.53;;;;;;;;;;5125445;28;24409;-54
2022/01/31 02:30:56;;;;;;;13.20;4.53;;;;;;;;;;5120094;28;24474;-53
2022/01/31 02:33:21;;;;;;;11.40;4.27;;;;;;;;;;5125939;28;24433;-54
2022/01/31 02:35:52;;;;;;;10.10;4.30;;;;;;;;;;5126409;28;24510;-54
2022/01/31 02:38:17;;;;;;;13.13;4.30;;;;;;;;;;5126012;28;24532;-53
2022/01/31 02:40:42;;;;;;;10.77;4.03;;;;;;;;;;5125264;28;24502;-54
2022/01/31 02:43:07;;;;;;;9.37;4.20;;;;;;;;;;5116961;28;25042;-53
2022/01/31 02:45:33;;;;;;;11.47;4.23;;;;;;;;;;5124610;27;24421;-54
2022/01/31 02:48:00;;;;;;;10.93;4.20;;;;;;;;;;5129705;27;24417;-54
2022/01/31 02:50:26;;;;;;;9.90;4.40;;;;;;;;;;5129264;27;24496;-54
2022/01/31 02:53:00;;;;;;;11.20;3.70;;;;;;;;;;5123425;27;24553;-55
2022/01/31 02:55:26;;;;;;;12.25;4.40;;;;;;;;;;5129614;27;24500;-54
2022/01/31 02:57:51;;;;;;;10.60;3.90;;;;;;;;;;5123975;27;24872;-54
2022/01/31 03:00:16;;;;;;;9.00;3.53;;;;;;;;;;5129264;27;24421;-53
2022/01/31 03:02:41;;;;;;;12.33;4.40;;;;;;;;;;5128426;27;24424;-53
2022/01/31 03:05:06;;;;;;;9.57;4.00;;;;;;;;;;5128644;27;24974;-54
2022/01/31 03:07:33;;;;;;;12.67;4.53;;;;;;;;;;5123308;27;24466;-55
2022/01/31 03:09:59;;;;;;;11.30;4.00;;;;;;;;;;5129501;27;24546;-54
2022/01/31 03:12:24;;;;;;;14.80;4.23;;;;;;;;;;5127315;27;24919;-54
2022/01/31 03:14:49;;;;;;;11.43;4.22;;;;;;;;;;5127815;27;24409;-55
2022/01/31 03:17:14;;;;;;;12.90;4.43;;;;;;;;;;5128813;27;24958;-54
2022/01/31 03:19:41;;;;;;;12.73;4.93;;;;;;;;;;5127967;27;24424;-53
2022/01/31 03:22:07;;;;;;;11.50;4.53;;;;;;;;;;5128878;27;24511;-54
2022/01/31 03:24:33;;;;;;;16.90;4.68;;;;;;;;;;5124783;27;24550;-54
2022/01/31 03:26:58;;;;;;;15.32;4.38;;;;;;;;;;5129598;27;24439;-54
2022/01/31 03:29:23;;;;;;;10.98;4.05;;;;;;;;;;5128867;27;24413;-53
2022/01/31 03:31:49;;;;;;;12.43;4.30;;;;;;;;;;5128377;27;24401;-53
2022/01/31 03:34:14;;;;;;;10.10;4.50;;;;;;;;;;5127943;27;24440;-54
2022/01/31 03:36:39;;;;;;;15.80;5.00;;;;;;;;;;5120859;27;24414;-58
2022/01/31 03:39:04;;;;;;;12.20;4.70;;;;;;;;;;5127104;27;24542;-54
2022/01/31 03:41:29;;;;;;;14.10;4.23;;;;;;;;;;5128872;27;25388;-60
2022/01/31 03:43:55;;;;;;;10.23;4.45;;;;;;;;;;5128013;27;24638;-54
2022/01/31 03:46:20;;;;;;;12.67;4.20;;;;;;;;;;5119444;27;24413;-54
2022/01/31 03:48:46;;;;;;;14.70;5.07;;;;;;;;;;5129106;27;24430;-53
2022/01/31 03:51:11;;;;;;;12.90;5.30;;;;;;;;;;5128195;27;24504;-54
2022/01/31 03:53:36;;;;;;;9.57;4.50;;;;;;;;;;5128356;27;24759;-54
2022/01/31 03:56:01;;;;;;;12.10;4.65;;;;;;;;;;5124594;27;24452;-54
2022/01/31 03:58:27;;;;;;;14.10;5.17;;;;;;;;;;5128259;27;24409;-54
2022/01/31 04:00:52;;;;;;;10.27;4.00;;;;;;;;;;5126571;27;24467;-55
2022/01/31 04:03:17;;;;;;;13.73;5.20;;;;;;;;;;5127220;27;24516;-54
2022/01/31 04:05:42;;;;;;;11.03;4.30;;;;;;;;;;5121703;27;24544;-53
2022/01/31 04:08:08;;;;;;;9.73;4.40;;;;;;;;;;5121747;27;24981;-55
2022/01/31 04:10:34;;;;;;;9.97;4.10;;;;;;;;;;5125136;27;24480;-54
2022/01/31 04:12:59;;;;;;;10.20;4.20;;;;;;;;;;5126547;27;24856;-56
2022/01/31 04:15:24;;;;;;;13.10;4.90;;;;;;;;;;5127380;27;24508;-55
2022/01/31 04:17:49;;;;;;;12.57;4.38;;;;;;;;;;5122594;27;24413;-53
2022/01/31 04:20:16;;;;;;;10.77;4.27;;;;;;;;;;5125206;27;24509;-52
2022/01/31 04:23:01;;;;;;;12.15;4.50;;;;;;;;;;5126380;27;24425;-54
2022/01/31 04:25:41;;;;;;;11.88;4.43;;;;;;;;;;5127716;27;25027;-53
2022/01/31 04:28:15;;;;;;;10.93;4.13;;;;;;;;;;5127674;27;24412;-53
2022/01/31 04:30:46;;;;;;;10.88;4.10;;;;;;;;;;5125633;27;24420;-53
2022/01/31 04:33:11;;;;;;;9.45;4.00;;;;;;;;;;5122581;27;24457;-53
2022/01/31 04:35:36;;;;;;;11.98;4.20;;;;;;;;;;5125658;27;24453;-54
2022/01/31 04:38:01;;;;;;;11.20;4.15;;;;;;;;;;5121167;27;24417;-53
2022/01/31 04:40:26;;;;;;;9.23;3.87;;;;;;;;;;5121876;27;24417;-53
2022/01/31 04:42:52;;;;;;;11.20;4.63;;;;;;;;;;5127031;27;24409;-54
2022/01/31 04:45:17;;;;;;;11.45;5.03;;;;;;;;;;5127026;27;24421;-54
2022/01/31 04:47:42;;;;;;;14.40;6.17;;;;;;;;;;5124509;27;24861;-54
2022/01/31 04:50:07;;;;;;;11.63;4.70;;;;;;;;;;5126299;27;24785;-54
2022/01/31 04:52:33;;;;;;;11.13;4.40;;;;;;;;;;5123206;27;25066;-54
2022/01/31 04:54:58;;;;;;;10.57;3.70;;;;;;;;;;5123532;27;24447;-54
2022/01/31 04:57:23;;;;;;;11.23;4.40;;;;;;;;;;5125838;27;24413;-54
2022/01/31 04:59:50;;;;;;;11.52;4.50;;;;;;;;;;5113203;27;24998;-54
2022/01/31 05:02:15;;;;;;;9.57;4.20;;;;;;;;;;5123281;27;24492;-53
2022/01/31 05:04:40;;;;;;;9.00;4.18;;;;;;;;;;5115413;27;24809;-53
2022/01/31 05:07:05;;;;;;;9.63;4.43;;;;;;;;;;5126031;27;24405;-54
2022/01/31 05:09:31;;;;;;;10.63;4.07;;;;;;;;;;5123385;27;24477;-54
2022/01/31 05:11:56;;;;;;;10.37;4.30;;;;;;;;;;5124156;27;24413;-54
2022/01/31 05:14:21;;;;;;;9.93;4.27;;;;;;;;;;5121351;27;24530;-54
2022/01/31 05:16:46;;;;;;;10.15;4.40;;;;;;;;;;5120648;27;24413;-54
2022/01/31 05:19:11;;;;;;;10.20;4.10;;;;;;;;;;5122373;27;24420;-55
2022/01/31 05:21:38;;;;;;;11.32;4.60;;;;;;;;;;5125764;27;24412;-55
2022/01/31 05:24:03;;;;;;;12.52;3.92;;;;;;;;;;5120507;27;25269;-55
2022/01/31 05:26:29;;;;;;;10.50;4.10;;;;;;;;;;5126639;27;24413;-53
2022/01/31 05:28:54;;;;;;;10.80;4.45;;;;;;;;;;5121770;27;24412;-53
2022/01/31 05:31:19;;;;;;;11.37;4.10;;;;;;;;;;5126059;27;24961;-54
2022/01/31 05:33:44;;;;;;;9.13;4.45;;;;;;;;;;5124009;28;25397;-53
2022/01/31 05:36:09;;;;;;;9.95;4.15;;;;;;;;;;5127209;28;24416;-54
2022/01/31 05:38:37;;;;;;;12.20;4.40;;;;;;;;;;5115765;28;24841;-54
2022/01/31 05:41:06;;;;;;;9.57;4.40;;;;;;;;;;5114074;28;24409;-57
2022/01/31 05:43:31;;;;;;;12.30;3.85;;;;;;;;;;5122677;28;24432;-56
2022/01/31 05:45:56;;;;;;;9.00;4.30;;;;;;;;;;5127190;28;24421;-55
2022/01/31 05:48:22;;;;;;;12.80;4.63;;;;;;;;;;5125465;28;24417;-56
2022/01/31 05:50:47;;;;;;;9.60;4.60;;;;;;;;;;5122327;28;24466;-53
2022/01/31 05:53:12;;;;;;;13.17;4.60;;;;;;;;;;5122696;28;25784;-55
2022/01/31 05:55:37;;;;;;;7.93;4.13;;;;;;;;;;5122051;28;24409;-54
2022/01/31 05:58:03;;;;;;;9.03;3.93;;;;;;;;;;5120229;28;24413;-55
2022/01/31 06:00:28;;;;;;;13.38;4.75;;;;;;;;;;5122183;28;24412;-54
2022/01/31 06:02:56;;;;;;;8.97;3.63;;;;;;;;;;5114803;28;24603;-55
2022/01/31 06:05:21;;;;;;;11.02;4.55;;;;;;;;;;5118662;28;24462;-56
2022/01/31 06:07:46;;;;;;;10.38;4.43;;;;;;;;;;5119276;28;24421;-55
2022/01/31 06:10:12;;;;;;;11.33;4.60;;;;;;;;;;5123109;28;24424;-56
2022/01/31 06:12:40;;;;;;;11.73;4.80;;;;;;;;;;5118457;28;24482;-55
2022/01/31 06:15:06;;;;;;;9.75;4.28;;;;;;;;;;5108535;28;24549;-55
2022/01/31 06:17:31;;;;;;;10.50;5.03;;;;;;;;;;5114447;28;25064;-55
2022/01/31 06:19:56;;;;;;;12.27;5.17;;;;;;;;;;5122042;27;24412;-55
2022/01/31 06:22:21;;;;;;;9.80;4.50;;;;;;;;;;5119489;27;24978;-55
2022/01/31 06:24:47;;;;;;;12.93;5.30;;;;;;;;;;5122359;27;24416;-55
2022/01/31 06:27:12;;;;;;;13.07;5.50;;;;;;;;;;5116817;27;24414;-55
2022/01/31 06:29:37;;;;;;;11.48;4.80;;;;;;;;;;5104538;27;24480;-55
2022/01/31 06:32:02;;;;;;;13.05;4.90;;;;;;;;;;5121142;27;25390;-55
2022/01/31 06:34:27;;;;;;;7.40;4.10;;;;;;;;;;5118625;27;24820;-55
2022/01/31 06:36:53;;;;;;;9.57;4.87;;;;;;;;;;5110846;27;25756;-55
2022/01/31 06:39:18;;;;;;;11.60;4.80;;;;;;;;;;5119554;27;24434;-54
2022/01/31 06:41:43;;;;;;;9.38;4.53;;;;;;;;;;5119797;27;25024;-55
2022/01/31 06:44:08;;;;;;;10.63;4.70;;;;;;;;;;5121371;27;24543;-55
2022/01/31 06:46:33;;;;;;;12.15;4.97;;;;;;;;;;5112592;27;24444;-54
2022/01/31 06:48:58;;;;;;;11.40;5.20;;;;;;;;;;5124109;27;24439;-56
2022/01/31 06:51:24;;;;;;;15.63;5.80;;;;;;;;;;5121783;27;24464;-55
2022/01/31 06:53:49;;;;;;;9.20;5.07;;;;;;;;;;5119342;27;24787;-55
2022/01/31 06:56:18;;;;;;;12.63;5.20;;;;;;;;;;5120793;27;25010;-55
2022/01/31 06:58:43;;;;;;;11.75;5.40;;;;;;;;;;5116032;27;24497;-55
2022/01/31 07:01:08;;;;;;;15.33;5.60;;;;;;;;;;5117868;27;25026;-54
2022/01/31 07:03:36;;;;;;;13.35;5.65;;;;;;;;;;5124065;27;24437;-54
2022/01/31 07:06:01;;;;;;;9.85;4.70;;;;;;;;;;5118342;27;24524;-54
2022/01/31 07:08:26;;;;;;;12.07;5.33;;;;;;;;;;5119744;27;25348;-54
2022/01/31 07:10:52;;;;;;;9.32;4.85;;;;;;;;;;5123178;27;24413;-54
2022/01/31 07:15:57;;;;;;;10.25;4.90;;;;;;;;;;5117851;27;24470;-55
2022/01/31 07:18:22;;;;;;;12.43;5.10;;;;;;;;;;5124697;27;24802;-55
2022/01/31 07:20:51;;;;;;;14.90;5.85;;;;;;;;;;5117930;27;24448;-55
2022/01/31 07:23:23;;;;;;;9.85;5.05;;;;;;;;;;5123441;27;24425;-54
2022/01/31 07:25:48;;;;;;;10.52;5.05;;;;;;;;;;5121065;27;24773;-54
2022/01/31 07:28:16;;;;;;;10.77;4.72;;;;;;;;;;5125234;27;24410;-54
2022/01/31 07:30:44;;;;;;;12.07;5.10;;;;;;;;;;5123181;27;24433;-54
2022/01/31 07:33:11;;;;;;;12.10;5.40;;;;;;;;;;5120898;27;24489;-54
2022/01/31 07:35:36;;;;;;;9.17;5.20;;;;;;;;;;5120780;27;24717;-53
2022/01/31 07:38:02;;;;;;;11.10;4.97;;;;;;;;;;5121124;27;24978;-54
2022/01/31 07:40:27;;;;;;;12.00;5.57;;;;;;;;;;5117417;27;24720;-56
2022/01/31 07:42:53;;;;;;;12.00;5.23;;;;;;;;;;5117849;27;25228;-55
2022/01/31 07:45:18;;;;;;;10.50;4.83;;;;;;;;;;5116389;27;24397;-55
2022/01/31 07:47:43;;;;;;;12.33;5.67;;;;;;;;;;5118242;27;24417;-55
2022/01/31 07:50:09;;;;;;;9.05;4.60;;;;;;;;;;5123291;27;24978;-55
2022/01/31 07:52:35;;;;;;;11.68;5.47;;;;;;;;;;5104357;27;24425;-55
2022/01/31 07:55:00;;;;;;;10.10;4.83;;;;;;;;;;5128324;27;24420;-53
2022/01/31 07:57:26;;;;;;;9.40;4.37;;;;;;;;;;5127125;27;24493;-55
2022/01/31 07:59:54;;;;;;;8.95;4.35;;;;;;;;;;5123148;27;24942;-55
2022/01/31 08:02:19;;;;;;;10.25;5.07;;;;;;;;;;5126713;27;24446;-56
2022/01/31 08:04:44;;;;;;;9.40;4.60;;;;;;;;;;5105703;28;24409;-56
2022/01/31 08:07:10;;;;;;;8.57;5.00;;;;;;;;;;5127050;27;24649;-56
2022/01/31 08:09:35;;;;;;;7.27;3.97;;;;;;;;;;5128168;27;24401;-54
2022/01/31 08:12:00;;;;;;;9.85;4.50;;;;;;;;;;5128292;27;24849;-54
2022/01/31 08:14:26;;;;;;;11.50;3.90;;;;;;;;;;5127955;27;24664;-53
2022/01/31 08:16:52;;;;;;;8.32;3.60;;;;;;;;;;5127324;27;24880;-54
2022/01/31 08:19:17;;;;;;;8.85;4.90;;;;;;;;;;5128413;27;24477;-55
2022/01/31 08:21:42;;;;;;;7.53;4.10;;;;;;;;;;5128011;27;24410;-57
2022/01/31 08:24:08;;;;;;;7.40;3.97;;;;;;;;;;5128119;27;24923;-55
2022/01/31 08:26:33;;;;;;;8.55;4.22;;;;;;;;;;5127872;27;24436;-55
2022/01/31 08:29:03;;;;;;;8.65;4.05;;;;;;;;;;5127893;27;24550;-54
2022/01/31 08:31:32;;;;;;;9.33;3.93;;;;;;;;;;5127186;27;25034;-55
2022/01/31 08:36:26;;;;;;;11.60;3.88;;;;;;;;;;5125746;27;24421;-55
2022/01/31 08:38:52;;;;;;;7.70;3.60;;;;;;;;;;5124543;27;25030;-54
2022/01/31 08:41:18;;;;;;;8.90;3.70;;;;;;;;;;5127665;27;24744;-54
2022/01/31 08:43:43;;;;;;;7.47;3.40;;;;;;;;;;5126481;27;24458;-54
2022/01/31 08:46:09;;;;;;;6.30;3.80;;;;;;;;;;5126245;27;24451;-55
2022/01/31 08:48:35;;;;;;;10.13;3.92;;;;;;;;;;5126694;27;24946;-54
2022/01/31 08:51:00;;;;;;;8.40;4.00;;;;;;;;;;5124049;27;24432;-55
2022/01/31 08:53:25;;;;;;;9.48;4.57;;;;;;;;;;5118589;27;25072;-55
2022/01/31 08:56:00;;;;;;;5.50;3.80;;;;;;;;;;5125267;27;24775;-54
2022/01/31 08:58:26;;;;;;;9.90;4.50;;;;;;;;;;5121931;27;24453;-56
2022/01/31 09:00:59;;;;;;;6.90;3.50;;;;;;;;;;5127096;27;24901;-55
2022/01/31 09:06:02;;;;;;;7.97;3.58;;;;;;;;;;5118172;27;24463;-54
2022/01/31 09:08:27;;;;;;;6.87;3.90;;;;;;;;;;5126277;27;24409;-54
2022/01/31 09:10:53;;;;;;;6.90;3.70;;;;;;;;;;5120934;27;24510;-55
2022/01/31 09:13:18;;;;;;;9.47;3.53;;;;;;;;;;5111950;27;24771;-54
2022/01/31 09:15:44;;;;;;;6.67;3.70;;;;;;;;;;5124851;27;25019;-55
2022/01/31 09:18:09;;;;;;;7.07;3.80;;;;;;;;;;5124672;27;24504;-55
2022/01/31 09:20:34;;;;;;;6.40;3.70;;;;;;;;;;5121176;27;24441;-54
2022/01/31 09:23:02;;;;;;;8.80;3.80;;;;;;;;;;5123326;27;24470;-55
2022/01/31 09:25:28;;;;;;;6.70;3.80;;;;;;;;;;5116091;27;24874;-55
2022/01/31 09:27:53;;;;;;;6.38;3.60;;;;;;;;;;5121802;27;24504;-54
2022/01/31 09:30:21;;;;;;;7.60;3.47;;;;;;;;;;5126556;27;24516;-55
2022/01/31 09:32:46;;;;;;;6.07;3.00;;;;;;;;;;5118170;28;24436;-55
2022/01/31 09:35:11;;;;;;;7.13;3.90;;;;;;;;;;5126559;28;24520;-55
2022/01/31 09:37:37;;;;;;;6.40;3.77;;;;;;;;;;5121353;28;24406;-55
2022/01/31 09:40:04;;;;;;;6.03;3.60;;;;;;;;;;5120843;28;24524;-55
2022/01/31 09:42:38;;;;;;;9.68;3.90;;;;;;;;;;5115677;28;25044;-55
2022/01/31 09:45:10;;;;;;;6.65;3.70;;;;;;;;;;5123371;28;24466;-55
2022/01/31 09:50:20;;;;;;;8.68;4.30;;;;;;;;;;5126699;28;24442;-55
2022/01/31 09:52:45;;;;;;;6.47;3.50;;;;;;;;;;5126080;28;24810;-56
2022/01/31 09:55:10;;;;;;;7.33;4.00;;;;;;;;;;5130219;27;24396;-55
2022/01/31 09:57:35;;;;;;;7.20;4.20;;;;;;;;;;5128841;27;24417;-55
2022/01/31 10:00:00;;;;;;;8.30;4.10;;;;;;;;;;5130221;27;24979;-55
2022/01/31 10:02:25;;;;;;;9.00;4.00;;;;;;;;;;5129484;27;24388;-55
2022/01/31 10:04:51;;;;;;;8.70;4.38;;;;;;;;;;5108659;28;24476;-55
2022/01/31 10:07:17;;;;;;;8.68;4.57;;;;;;;;;;5122070;27;24412;-54
2022/01/31 10:09:46;;;;;;;7.38;4.13;;;;;;;;;;5111637;27;24753;-54
2022/01/31 10:12:25;;;;;;;9.10;4.40;;;;;;;;;;5126088;27;24862;-55
2022/01/31 10:17:38;;;;;;;7.65;4.40;;;;;;;;;;5120323;27;24458;-54
2022/01/31 10:20:09;;;;;;;8.02;4.00;;;;;;;;;;5128139;27;24396;-55
2022/01/31 10:22:35;;;;;;;7.13;4.20;;;;;;;;;;5122593;27;24455;-54
2022/01/31 10:25:02;;;;;;;6.70;4.05;;;;;;;;;;5109687;28;24401;-54
2022/01/31 10:27:29;;;;;;;7.00;3.90;;;;;;;;;;5115653;27;24416;-55
2022/01/31 10:30:14;;;;;;;6.30;3.80;;;;;;;;;;5129706;27;24401;-55
2022/01/31 10:32:41;;;;;;;8.40;4.50;;;;;;;;;;5127257;27;24809;-54
2022/01/31 10:35:08;;;;;;;10.35;4.63;;;;;;;;;;5128184;27;24644;-55
2022/01/31 10:37:35;;;;;;;8.57;4.97;;;;;;;;;;5128079;27;24417;-53
2022/01/31 10:45:52;;;;;;;10.80;5.25;;;;;;;;;;5126448;27;24412;-55
2022/01/31 10:53:41;;;;;;;8.88;5.10;;;;;;;;;;5117958;27;24477;-54
2022/01/31 10:56:06;;;;;;;9.10;5.10;;;;;;;;;;5116297;27;24398;-54
2022/01/31 10:58:32;;;;;;;7.95;4.88;;;;;;;;;;5125252;27;24419;-54
2022/01/31 11:01:16;;;;;;;8.73;5.40;;;;;;;;;;5126837;27;24954;-54
2022/01/31 11:03:41;;;;;;;7.75;5.47;;;;;;;;;;5119290;27;24496;-54
2022/01/31 11:06:10;;;;;;;8.77;5.45;;;;;;;;;;5126401;27;24508;-54
2022/01/31 11:08:35;;;;;;;10.70;5.77;;;;;;;;;;5117252;27;24536;-54
2022/01/31 11:11:01;;;;;;;7.77;5.20;;;;;;;;;;5123652;27;24508;-55
2022/01/31 11:13:26;;;;;;;7.57;4.95;;;;;;;;;;5118950;27;24503;-55
2022/01/31 11:15:55;;;;;;;9.27;5.57;;;;;;;;;;5119622;27;24428;-55
2022/01/31 11:18:21;;;;;;;9.90;6.03;;;;;;;;;;5129024;27;24514;-55
2022/01/31 11:20:49;;;;;;;11.57;5.60;;;;;;;;;;5123015;27;24422;-54
2022/01/31 11:23:14;;;;;;;9.60;5.30;;;;;;;;;;5125045;27;24997;-54
2022/01/31 11:25:40;;;;;;;10.63;5.63;;;;;;;;;;5126410;27;24440;-54
2022/01/31 11:28:07;;;;;;;9.10;5.50;;;;;;;;;;5128284;27;24490;-55
2022/01/31 11:30:32;;;;;;;8.00;5.97;;;;;;;;;;5123064;27;24629;-55
2022/01/31 11:32:58;;;;;;;8.80;5.60;;;;;;;;;;5124798;27;24610;-55
2022/01/31 11:35:23;;;;;;;6.70;5.20;;;;;;;;;;5123333;27;24501;-55
2022/01/31 11:37:49;;;;;;;8.18;4.80;;;;;;;;;;5125935;27;24469;-54
2022/01/31 11:40:15;;;;;;;7.95;4.60;;;;;;;;;;5123397;27;25039;-55
2022/01/31 11:42:41;;;;;;;7.43;4.60;;;;;;;;;;5125943;27;24409;-54
2022/01/31 11:45:28;;;;;;;6.50;4.25;;;;;;;;;;5127449;27;24427;-55
2022/01/31 11:47:53;;;;;;;5.88;4.30;;;;;;;;;;5111791;27;24401;-56
2022/01/31 11:50:20;;;;;;;6.70;4.30;;;;;;;;;;5126046;27;24431;-56
2022/01/31 11:52:50;;;;;;;6.20;4.10;;;;;;;;;;5126112;27;24466;-56
2022/01/31 11:55:17;;;;;;;6.57;3.55;;;;;;;;;;5125326;27;24424;-56
2022/01/31 11:57:46;;;;;;;6.90;4.05;;;;;;;;;;5127946;27;24389;-56
2022/01/31 12:00:13;;;;;;;6.95;4.00;;;;;;;;;;5121418;27;24500;-56
2022/01/31 12:02:45;;;;;;;5.85;3.90;;;;;;;;;;5118068;27;24508;-56
2022/01/31 12:05:12;;;;;;;3.80;3.40;;;;;;;;;;5126077;27;24436;-56
2022/01/31 12:07:41;;;;;;;5.22;3.30;;;;;;;;;;5126612;27;24409;-56
2022/01/31 12:10:09;;;;;;;4.10;3.20;;;;;;;;;;5125773;27;24413;-56
2022/01/31 12:13:25;;;;;;;4.32;3.03;;;;;;;;;;5126156;27;24492;-55
2022/01/31 12:18:37;;;;;;;4.60;3.70;;;;;;;;;;5124773;27;24418;-55
2022/01/31 12:23:51;;;;;;;3.60;3.30;;;;;;;;;;5125284;27;24421;-55
2022/01/31 12:26:35;;;;;;;3.80;3.40;;;;;;;;;;5128439;27;24433;-57
2022/01/31 12:29:11;;;;;;;4.00;3.70;;;;;;;;;;5127609;27;24811;-55
2022/01/31 12:31:36;;;;;;;4.80;4.00;;;;;;;;;;5127733;27;24413;-56
2022/01/31 12:34:03;;;;;;;4.07;3.30;;;;;;;;;;5127326;27;24433;-54
2022/01/31 12:36:34;;;;;;;3.60;3.30;;;;;;;;;;5128208;27;24480;-55
2022/01/31 12:39:32;;;;;;;3.40;3.08;;;;;;;;;;5063444;28;24469;-57
2022/01/31 12:42:25;;;;;;;2.75;2.55;;;;;;;;;;5047021;28;25031;-55
2022/01/31 12:44:46;;;;;;;2.50;2.40;;;;;;;;;;5044344;28;24957;-55
2022/01/31 12:47:14;;;;;;;2.43;2.23;;;;;;;;;;5044074;28;24418;-56
2022/01/31 12:49:39;;;;;;;1.80;1.70;;;;;;;;;;5048089;28;24411;-57
2022/01/31 12:52:06;;;;;;;2.10;1.90;;;;;;;;;;5063584;28;24472;-56
2022/01/31 12:54:31;;;;;;;2.30;2.10;;;;;;;;;;5061209;28;24418;-54
2022/01/31 12:57:07;;;;;;;2.10;2.00;;;;;;;;;;5046028;28;24411;-53
2022/01/31 12:59:32;;;;;;;1.63;1.52;;;;;;;;;;5044647;28;24999;-54
2022/01/31 13:01:58;;;;;;;2.03;1.83;;;;;;;;;;5062757;28;24502;-55
2022/01/31 13:04:29;;;;;;;2.13;2.00;;;;;;;;;;5055867;28;24411;-54
2022/01/31 13:06:59;;;;;;;2.65;2.30;;;;;;;;;;5044975;28;24419;-55
2022/01/31 13:09:26;;;;;;;2.15;1.92;;;;;;;;;;5047094;28;24423;-56
2022/01/31 13:11:55;;;;;;;1.98;1.80;;;;;;;;;;5050671;28;24775;-56
2022/01/31 13:14:26;;;;;;;2.70;2.50;;;;;;;;;;5056670;28;24949;-53
2022/01/31 13:16:57;;;;;;;1.80;1.70;;;;;;;;;;5063291;28;24936;-55
2022/01/31 13:19:24;;;;;;;2.13;2.03;;;;;;;;;;5081204;28;24433;-55
2022/01/31 13:21:50;;;;;;;2.50;2.30;;;;;;;;;;5083243;28;24421;-55
2022/01/31 13:24:16;;;;;;;2.15;2.00;;;;;;;;;;5083816;28;24406;-55
2022/01/31 13:26:48;;;;;;;2.30;1.90;;;;;;;;;;5076487;28;24461;-55
2022/01/31 13:29:32;;;;;;;2.50;2.30;;;;;;;;;;5056679;28;24411;-55
2022/01/31 13:31:57;;;;;;;2.20;2.10;;;;;;;;;;5043333;28;24586;-55
2022/01/31 13:34:33;;;;;;;3.13;2.87;;;;;;;;;;5043301;28;25018;-55
2022/01/31 13:36:58;;;;;;;2.40;2.30;;;;;;;;;;5043008;28;24485;-57
2022/01/31 13:39:23;;;;;;;2.80;2.40;;;;;;;;;;5043523;28;24404;-56
2022/01/31 13:41:48;;;;;;;2.63;2.43;;;;;;;;;;5042793;28;24908;-58
2022/01/31 13:44:13;;;;;;;2.80;2.60;;;;;;;;;;5046270;28;24971;-56
2022/01/31 13:46:48;;;;;;;2.60;2.50;;;;;;;;;;5062124;28;24387;-57
2022/01/31 13:49:18;;;;;;;2.40;2.20;;;;;;;;;;5057530;28;24452;-58
2022/01/31 13:51:48;;;;;;;2.70;2.50;;;;;;;;;;5035911;28;24472;-59
2022/01/31 13:54:14;;;;;;;3.28;2.80;;;;;;;;;;5049781;28;25259;-59
2022/01/31 13:56:44;;;;;;;2.83;2.60;;;;;;;;;;5039521;28;24586;-59
2022/01/31 13:59:09;;;;;;;2.60;2.40;;;;;;;;;;5029155;28;24436;-59
2022/01/31 14:01:34;;;;;;;3.00;2.80;;;;;;;;;;5042858;28;24431;-59
2022/01/31 14:04:00;;;;;;;2.90;2.70;;;;;;;;;;5048582;28;24396;-59
2022/01/31 14:06:25;;;;;;;3.00;2.80;;;;;;;;;;5049353;28;24407;-59
2022/01/31 14:08:55;;;;;;;2.78;2.60;;;;;;;;;;5049085;28;24411;-60
2022/01/31 14:11:21;;;;;;;3.10;2.90;;;;;;;;;;5032213;28;25019;-58
2022/01/31 14:13:51;;;;;;;3.60;3.30;;;;;;;;;;5042155;28;24922;-58
2022/01/31 14:16:19;;;;;;;3.60;3.30;;;;;;;;;;5043097;28;24419;-59
2022/01/31 14:18:46;;;;;;;4.30;4.00;;;;;;;;;;5048883;28;24522;-59
2022/01/31 14:21:11;;;;;;;3.20;3.00;;;;;;;;;;5047469;28;24443;-59
2022/01/31 14:23:37;;;;;;;3.67;3.47;;;;;;;;;;5047568;28;24430;-59
2022/01/31 14:26:03;;;;;;;3.70;3.50;;;;;;;;;;5048968;28;24607;-58
2022/01/31 14:28:42;;;;;;;3.70;3.40;;;;;;;;;;5044992;28;24998;-59
2022/01/31 14:31:07;;;;;;;4.10;3.80;;;;;;;;;;5028548;28;24885;-58
2022/01/31 14:33:33;;;;;;;4.60;4.20;;;;;;;;;;5028848;28;24376;-58
2022/01/31 14:36:03;;;;;;;4.30;4.00;;;;;;;;;;5030786;28;24427;-58
2022/01/31 14:38:34;;;;;;;4.50;4.10;;;;;;;;;;5028286;28;24444;-58
2022/01/31 14:48:58;;;;;;;5.00;4.60;;;;;;;;;;5028905;28;24403;-59
2022/01/31 14:51:24;;;;;;;5.53;5.13;;;;;;;;;;5041041;28;24416;-58
2022/01/31 14:53:53;;;;;;;6.30;5.80;;;;;;;;;;5045512;28;24507;-58
2022/01/31 14:56:18;;;;;;;5.40;5.00;;;;;;;;;;5048230;28;24490;-58
2022/01/31 14:58:43;;;;;;;5.60;5.20;;;;;;;;;;5048099;28;24435;-59
2022/01/31 15:01:08;;;;;;;5.50;5.10;;;;;;;;;;5043231;28;24646;-58
2022/01/31 15:03:34;;;;;;;5.80;5.30;;;;;;;;;;5045590;28;24415;-58
2022/01/31 15:05:59;;;;;;;5.47;4.97;;;;;;;;;;5043423;28;24438;-58
2022/01/31 15:08:24;;;;;;;5.63;5.23;;;;;;;;;;5032184;28;24424;-58
2022/01/31 15:10:50;;;;;;;5.10;4.70;;;;;;;;;;5027238;28;24435;-58
2022/01/31 15:13:15;;;;;;;5.95;5.45;;;;;;;;;;5028176;28;24391;-58